Terminal Aerodrome Forecast
Issued by NWS Twin Cities, MN

Home | Current Version | Previous Version | Text Only | Print | Product List | Glossary On
Versions: 1 2 3 4 5 6 7 8 9 10 11 12 13 14 15 16 17 18 19 20 21 22 23 24 25 26 27 28 29
694
FTUS43 KMPX 271124
TAFMSP
TAF
KMSP 271124Z 2712/2818 36005KT P6SM OVC028
     FM271400 01006KT P6SM BKN030 OVC070
     FM271600 02007KT P6SM SCT030 BKN090
     FM272000 04006KT P6SM SCT090 BKN250=

USA.gov is the U.S. government's official web portal to all federal, state and local government web resources and services.